Terminal Aerodrome Forecast
Issued by NWS

Home | Current Version | Previous Version | Text Only | Print | Product List | Glossary Off
Versions: 1 2 3 4 5 6 7 8 9 10 11 12 13 14 15 16 17 18 19 20 21 22 23 24

000
FTUS43 KABR 080453 AAC
TAFATY
TAF AMD
KATY 080453Z 0805/0824 30018G26KT 2SM -SN OVC015
     FM081600 31015KT P6SM OVC025
     FM082200 31013KT P6SM OVC050=

USA.gov is the U.S. government's official web portal to all federal, state and local government web resources and services.